Winona

*Note: All times are displayed in the local standard time of the station location.
**Rain - Equipment is designed to accurately record liquid precipitation; under conditions when precipitation is not in liquid form, the data displayed may not properly reflect rainfall values.

Date Max Temp
(°C)
Min Temp
(°C)
Avg Temp
(°C)
Rain (mm) Avg RH (%) Solar Rad (kJ/m2)
Sat, Feb 17, 2018 -0.3 -5.8 -2.7 0.0 89.6 4087.2
Fri, Feb 16, 2018 4.0 -6.0 -0.4 0.0 90.2 6133.8
Thu, Feb 15, 2018 7.9 2.9 5.5 0.2 100.0 5540.3
Wed, Feb 14, 2018 6.1 -4.3 2.5 10.4 90.5 9277.5
Tue, Feb 13, 2018 -0.5 -15.7 -7.6 0.4 91.0 7792.8
Mon, Feb 12, 2018 -1.1 -11.9 -5.6 0.4 89.2 8512.0
Sun, Feb 11, 2018 1.3 -3.4 -1.7 0.2 99.8 2824.9
DateTime Avg Temp (°C) Rain (mm) RH (%) Solar Rad (kJ/m2)
Sun, Feb 18, 2018 04:00 -2.6 0.0 100.0 0.0
Sun, Feb 18, 2018 03:00 -2.7 0.0 100.0 0.0
Sun, Feb 18, 2018 02:00 -2.1 0.0 100.0 0.0
Sun, Feb 18, 2018 01:00 -1.8 0.0 100.0 0.0
Sun, Feb 18, 2018 00:00 -1.4 0.0 99.3 0.0
Sat, Feb 17, 2018 23:00 -1.4 0.0 95.5 0.0
Sat, Feb 17, 2018 22:00 -1.4 0.0 92.0 0.0
Sat, Feb 17, 2018 21:00 -1.3 0.0 90.8 0.0
Sat, Feb 17, 2018 20:00 -1.5 0.0 90.3 0.0
Sat, Feb 17, 2018 19:00 -1.5 0.0 87.5 0.0
Sat, Feb 17, 2018 18:00 -1.3 0.0 82.0 40.0
Sat, Feb 17, 2018 17:00 -1.1 0.0 81.0 118.1
Sat, Feb 17, 2018 16:00 -1.1 0.0 81.8 213.2
Sat, Feb 17, 2018 15:00 -0.9 0.0 80.5 352.7
Sat, Feb 17, 2018 14:00 -0.5 0.0 79.0 569.9
Sat, Feb 17, 2018 13:00 -0.5 0.0 79.0 661.9
Sat, Feb 17, 2018 12:00 -0.6 0.0 78.0 650.5
Sat, Feb 17, 2018 11:00 -1.0 0.0 81.8 636.0
Sat, Feb 17, 2018 10:00 -2.1 0.0 88.5 453.6
Sat, Feb 17, 2018 09:00 -3.5 0.0 92.8 321.5
Sat, Feb 17, 2018 08:00 -4.9 0.0 96.3 69.8
Sat, Feb 17, 2018 07:00 -5.4 0.0 99.3 0.0
Sat, Feb 17, 2018 06:00 -5.4 0.0 100.0 0.0
Sat, Feb 17, 2018 05:00 -5.4 0.0 99.5 0.0
Sat, Feb 17, 2018 04:00 -5.3 0.0 97.0 0.0
Sat, Feb 17, 2018 03:00 -5.7 0.0 94.0 0.0
Sat, Feb 17, 2018 02:00 -5.6 0.0 93.5 0.0
Sat, Feb 17, 2018 01:00 -5.4 0.0 92.5 0.0
Sat, Feb 17, 2018 00:00 -5.2 0.0 91.3 0.0
Fri, Feb 16, 2018 23:00 -5.3 0.0 91.8 0.0
Fri, Feb 16, 2018 22:00 -5.5 0.0 91.3 0.0
Fri, Feb 16, 2018 21:00 -5.6 0.0 90.5 0.0
Fri, Feb 16, 2018 20:00 -4.0 0.0 82.8 0.0
Fri, Feb 16, 2018 19:00 -3.4 0.0 76.8 0.0
Fri, Feb 16, 2018 18:00 -2.8 0.0 75.0 56.9
Fri, Feb 16, 2018 17:00 -1.6 0.0 74.5 353.6
Fri, Feb 16, 2018 16:00 -0.7 0.0 75.8 703.3
Fri, Feb 16, 2018 15:00 0.1 0.0 77.8 724.6
Fri, Feb 16, 2018 14:00 1.3 0.0 75.8 1298.9
Fri, Feb 16, 2018 13:00 1.5 0.0 78.5 1196.5
Fri, Feb 16, 2018 12:00 1.7 0.0 87.0 961.0
Fri, Feb 16, 2018 11:00 1.7 0.0 96.0 449.2
Fri, Feb 16, 2018 10:00 1.5 0.0 100.0 267.0
Fri, Feb 16, 2018 09:00 1.3 0.0 100.0 116.1
Fri, Feb 16, 2018 08:00 1.0 0.0 100.0 6.7
Fri, Feb 16, 2018 07:00 1.4 0.0 100.0 0.0
Fri, Feb 16, 2018 06:00 1.9 0.0 100.0 0.0
Fri, Feb 16, 2018 05:00 2.6 0.0 100.0 0.0


asterix Register now to access more data! asterix